Time;durP1;ratioP1;P1;durP2;ratioP2;P2;SDS_P1;SDS_P2;PMS_P1;PMS_P2;Temp;Humidity;BMP_temperature;BMP_pressure;BME280_temperature;BME280_humidity;BME280_pressure;Samples;Min_cycle;Max_cycle;Signal;HPM_P1;HPM_P2
2023/08/30 00:00:39;;;;;;;2.00;1.90;;;22.20;68.20;23.20;100109.00;;;;5028792;28;20221;-54
2023/08/30 00:03:05;;;;;;;2.10;2.00;;;22.20;68.20;23.20;100119.00;;;;5019709;28;20263;-54
2023/08/30 00:05:31;;;;;;;2.30;2.00;;;22.20;68.30;23.20;100109.00;;;;5028021;28;20194;-54
2023/08/30 00:07:57;;;;;;;2.00;1.90;;;22.20;68.30;23.10;100115.00;;;;5027791;28;20210;-54
2023/08/30 00:10:23;;;;;;;2.17;2.00;;;22.10;68.20;23.10;100115.00;;;;5027586;28;20207;-55
2023/08/30 00:12:49;;;;;;;1.97;1.87;;;22.20;68.30;23.10;100114.00;;;;5027653;28;20221;-54
2023/08/30 00:15:14;;;;;;;2.00;1.90;;;22.20;68.30;23.10;100114.00;;;;5010071;28;20186;-54
2023/08/30 00:17:40;;;;;;;2.20;2.10;;;22.10;68.20;23.10;100112.00;;;;5027553;28;20179;-54
2023/08/30 00:20:08;;;;;;;2.03;1.90;;;22.10;68.20;23.10;100121.00;;;;5024709;28;20199;-54
2023/08/30 00:22:34;;;;;;;2.00;1.90;;;22.10;68.30;23.10;100110.00;;;;5013747;28;20274;-54
2023/08/30 00:25:00;;;;;;;2.30;2.10;;;22.10;68.30;23.10;100106.00;;;;5027284;28;20250;-54
2023/08/30 00:27:26;;;;;;;2.13;2.00;;;22.10;68.30;23.10;100043.00;;;;5010043;28;20295;-55
2023/08/30 00:29:52;;;;;;;2.30;2.10;;;22.10;68.40;23.00;100107.00;;;;5027048;28;20207;-54
2023/08/30 00:32:18;;;;;;;2.13;2.00;;;22.10;68.30;23.00;100107.00;;;;5027551;28;20306;-55
2023/08/30 00:34:44;;;;;;;1.90;1.80;;;22.10;68.40;23.00;100104.00;;;;5027937;28;20187;-54
2023/08/30 00:37:09;;;;;;;2.03;1.93;;;22.10;68.40;23.00;100108.00;;;;5027449;28;20191;-54
2023/08/30 00:39:38;;;;;;;2.07;1.97;;;22.10;68.40;23.00;100103.00;;;;5020159;28;20232;-54
2023/08/30 00:42:07;;;;;;;2.27;2.07;;;22.00;68.40;23.00;100095.00;;;;5025964;28;20270;-54
2023/08/30 00:44:35;;;;;;;2.20;2.10;;;22.10;68.60;23.00;100101.00;;;;5028482;28;20560;-54
2023/08/30 00:47:02;;;;;;;2.20;2.00;;;22.10;68.60;23.00;100102.00;;;;5031007;28;20179;-55
2023/08/30 00:49:29;;;;;;;1.90;1.80;;;22.00;68.40;23.00;100095.00;;;;5030776;28;20249;-54
2023/08/30 00:51:55;;;;;;;2.07;1.97;;;22.00;68.40;23.00;100105.00;;;;5012893;28;20233;-55
2023/08/30 00:54:21;;;;;;;2.30;2.10;;;22.00;68.50;23.00;100101.00;;;;4996791;28;20186;-54
2023/08/30 00:56:47;;;;;;;2.67;1.90;;;22.00;68.60;23.00;100099.00;;;;5030953;28;20191;-55
2023/08/30 00:59:13;;;;;;;2.30;1.80;;;22.00;68.50;23.00;100096.00;;;;5030620;28;20211;-55
2023/08/30 01:01:39;;;;;;;2.00;1.90;;;21.90;68.40;22.90;100083.00;;;;5014274;28;20590;-54
2023/08/30 01:04:05;;;;;;;1.93;1.83;;;22.00;68.50;22.90;100077.00;;;;5030008;28;20195;-54
2023/08/30 01:06:31;;;;;;;2.00;1.90;;;22.00;68.40;22.70;100066.00;;;;5030990;28;20179;-54
2023/08/30 01:08:56;;;;;;;2.00;1.90;;;22.00;68.40;22.90;100074.00;;;;5030857;28;20663;-54
2023/08/30 01:11:34;;;;;;;2.30;1.83;;;21.90;68.20;22.90;100069.00;;;;5013182;28;20203;-55
2023/08/30 01:14:07;;;;;;;2.10;2.00;;;21.90;68.50;22.90;100069.00;;;;5013094;28;20221;-54
2023/08/30 01:16:33;;;;;;;4.53;2.00;;;21.90;68.50;22.90;100056.00;;;;5012817;28;20175;-54
2023/08/30 01:18:59;;;;;;;2.10;2.00;;;21.90;68.40;22.90;100063.00;;;;5012450;28;20218;-54
2023/08/30 01:21:48;;;;;;;2.97;2.23;;;21.90;68.40;22.90;100061.00;;;;5012864;28;20203;-54
2023/08/30 01:24:14;;;;;;;2.37;2.20;;;21.90;68.40;22.80;100052.00;;;;5022026;28;20202;-54
2023/08/30 01:26:42;;;;;;;2.17;2.07;;;21.90;68.40;22.80;100051.00;;;;5013006;28;20178;-54
2023/08/30 01:29:08;;;;;;;2.50;2.30;;;21.90;68.50;22.80;100047.00;;;;5012486;28;20608;-54
2023/08/30 01:31:34;;;;;;;3.20;2.20;;;21.90;68.50;22.80;100042.00;;;;5017551;28;20254;-53
2023/08/30 01:34:03;;;;;;;2.90;2.30;;;21.90;68.50;22.80;100045.00;;;;5022401;28;20182;-54
2023/08/30 01:36:30;;;;;;;3.63;2.33;;;21.90;68.60;22.80;100040.00;;;;5031268;28;20194;-55
2023/08/30 01:38:57;;;;;;;2.30;2.10;;;21.90;68.60;22.70;100034.00;;;;5030392;28;20293;-54
2023/08/30 01:41:23;;;;;;;2.40;2.20;;;21.90;68.80;22.70;100048.00;;;;5013298;28;20623;-55
2023/08/30 01:43:49;;;;;;;2.17;2.07;;;21.80;68.40;22.70;99985.00;;;;5031274;28;20190;-54
2023/08/30 01:46:15;;;;;;;2.40;2.20;;;21.80;68.40;22.70;99985.00;;;;5019426;28;20187;-54
2023/08/30 01:48:40;;;;;;;2.23;2.13;;;21.80;68.50;22.70;100054.00;;;;5038590;28;20210;-54
2023/08/30 01:51:07;;;;;;;2.37;2.10;;;21.80;68.50;22.70;100048.00;;;;5012394;28;20242;-55
2023/08/30 01:53:33;;;;;;;2.40;2.20;;;21.80;68.60;22.70;100051.00;;;;5029218;28;20198;-55
2023/08/30 01:55:59;;;;;;;2.10;2.00;;;21.80;68.60;22.70;100052.00;;;;5011598;28;20183;-54
2023/08/30 01:58:24;;;;;;;2.33;2.13;;;21.80;68.60;22.70;100049.00;;;;5012170;28;20210;-55
2023/08/30 02:00:50;;;;;;;2.40;2.20;;;21.80;68.60;22.70;100046.00;;;;5029493;28;20215;-54
2023/08/30 02:03:16;;;;;;;2.30;2.10;;;21.70;68.50;22.60;100047.00;;;;5021798;28;20210;-54
2023/08/30 02:06:01;;;;;;;2.40;2.20;;;21.80;69.40;22.60;100053.00;;;;5030188;28;20187;-53
2023/08/30 02:08:53;;;;;;;2.40;2.20;;;21.70;68.60;22.60;100060.00;;;;5028355;28;21003;-54
2023/08/30 02:11:25;;;;;;;2.50;2.30;;;21.70;68.50;22.60;100036.00;;;;5022366;28;20320;-54
2023/08/30 02:13:52;;;;;;;2.63;2.43;;;21.70;68.50;22.60;100049.00;;;;5012385;28;20217;-53
2023/08/30 02:16:17;;;;;;;2.30;2.10;;;21.70;68.50;22.60;100043.00;;;;5011779;28;20632;-54
2023/08/30 02:18:43;;;;;;;2.40;2.20;;;21.70;68.50;22.60;100054.00;;;;5029477;28;20218;-54
2023/08/30 02:21:09;;;;;;;2.43;2.23;;;21.70;68.60;22.60;100055.00;;;;5012127;28;20289;-54
2023/08/30 02:23:35;;;;;;;2.13;2.03;;;21.70;68.50;22.50;100047.00;;;;5028075;28;20258;-54
2023/08/30 02:26:03;;;;;;;2.43;2.23;;;21.70;68.50;22.60;100046.00;;;;5029079;28;20178;-54
2023/08/30 02:28:29;;;;;;;2.60;2.40;;;21.70;68.70;22.50;100046.00;;;;5029182;28;20190;-54
2023/08/30 02:30:54;;;;;;;2.40;2.20;;;21.70;68.50;22.50;100048.00;;;;5028996;28;20209;-55
2023/08/30 02:33:21;;;;;;;2.43;2.27;;;21.70;68.60;22.50;100055.00;;;;5029322;28;20186;-54
2023/08/30 02:35:46;;;;;;;3.43;2.60;;;21.60;68.40;22.50;100047.00;;;;5029406;28;20194;-54
2023/08/30 02:38:12;;;;;;;2.77;2.57;;;21.60;68.40;22.50;100049.00;;;;5028798;28;20309;-54
2023/08/30 02:40:38;;;;;;;2.87;2.67;;;21.60;68.40;22.50;100049.00;;;;5028776;28;20269;-55
2023/08/30 02:43:04;;;;;;;2.60;2.40;;;21.60;68.40;22.50;100045.00;;;;5030219;28;20651;-54
2023/08/30 02:45:29;;;;;;;2.70;2.50;;;21.60;68.40;22.40;100045.00;;;;5029417;28;20186;-54
2023/08/30 02:47:56;;;;;;;2.60;2.40;;;21.60;68.40;22.40;100042.00;;;;5028809;28;20187;-54
2023/08/30 02:50:23;;;;;;;2.60;2.40;;;21.60;68.40;22.40;100043.00;;;;5028963;28;20211;-55
2023/08/30 02:52:49;;;;;;;2.97;2.47;;;21.60;68.40;22.40;100043.00;;;;5029073;28;20270;-54
2023/08/30 02:55:14;;;;;;;2.57;2.37;;;21.60;68.40;22.40;100041.00;;;;5028852;28;20669;-54
2023/08/30 02:57:40;;;;;;;2.70;2.50;;;21.60;68.40;22.40;100044.00;;;;5028950;28;20191;-54
2023/08/30 03:00:07;;;;;;;2.70;2.50;;;21.60;68.40;22.40;100024.00;;;;5028678;28;20791;-54
2023/08/30 03:02:33;;;;;;;2.60;2.40;;;21.60;68.40;22.40;100034.00;;;;5023820;28;20283;-54
2023/08/30 03:04:59;;;;;;;2.70;2.50;;;21.50;68.30;22.40;100028.00;;;;5028181;28;20187;-54
2023/08/30 03:07:25;;;;;;;3.47;2.70;;;21.50;68.30;22.40;100016.00;;;;5029975;28;20179;-54
2023/08/30 03:09:54;;;;;;;2.70;2.50;;;21.50;68.40;22.30;100015.00;;;;5029454;28;20257;-55
2023/08/30 03:12:20;;;;;;;3.10;2.90;;;21.50;68.30;22.30;100021.00;;;;5029921;28;20197;-55
2023/08/30 03:14:46;;;;;;;2.80;2.60;;;21.50;68.30;22.30;100014.00;;;;5029519;28;20198;-55
2023/08/30 03:17:12;;;;;;;2.90;2.70;;;21.50;68.30;22.30;100013.00;;;;5029777;28;20187;-54
2023/08/30 03:19:38;;;;;;;3.90;3.03;;;21.50;68.40;22.30;100019.00;;;;5029494;28;20839;-54
2023/08/30 03:22:04;;;;;;;3.30;2.50;;;21.50;68.40;22.30;100013.00;;;;5029548;28;20653;-54
2023/08/30 03:24:29;;;;;;;2.83;2.63;;;21.40;68.40;22.30;100016.00;;;;5029605;28;20183;-55
2023/08/30 03:26:55;;;;;;;3.07;2.77;;;21.40;68.40;22.30;100010.00;;;;5029868;28;20178;-54
2023/08/30 03:29:21;;;;;;;6.93;3.00;;;21.40;68.40;22.30;100003.00;;;;5029585;28;20214;-54
2023/08/30 03:31:47;;;;;;;4.47;3.20;;;21.40;68.60;22.20;100003.00;;;;5040384;28;20182;-55
2023/08/30 03:34:13;;;;;;;3.30;3.00;;;21.40;68.80;22.20;100004.00;;;;5047414;28;20202;-54
2023/08/30 03:36:39;;;;;;;3.00;2.70;;;21.40;68.60;22.20;99995.00;;;;5030616;28;20795;-54
2023/08/30 03:39:05;;;;;;;4.20;2.90;;;21.40;68.60;22.20;99995.00;;;;5029793;28;20669;-54
2023/08/30 03:41:30;;;;;;;3.23;2.70;;;21.40;68.50;22.20;100000.00;;;;5013053;28;20210;-54
2023/08/30 03:43:56;;;;;;;4.87;2.70;;;21.40;68.40;22.20;99999.00;;;;5030591;28;20270;-55
2023/08/30 03:46:22;;;;;;;3.10;2.80;;;21.40;68.40;22.20;100010.00;;;;5041965;28;20171;-54
2023/08/30 03:48:47;;;;;;;3.83;3.00;;;21.40;68.40;22.20;99998.00;;;;5043373;28;20246;-54
2023/08/30 03:51:13;;;;;;;3.00;2.80;;;21.40;68.30;22.20;100005.00;;;;5029692;28;20210;-54
2023/08/30 03:53:39;;;;;;;3.00;2.70;;;21.40;68.30;22.20;99993.00;;;;5030295;28;20712;-55
2023/08/30 03:56:05;;;;;;;6.50;2.90;;;21.30;68.20;22.20;100002.00;;;;5029517;28;20189;-54
2023/08/30 03:58:31;;;;;;;3.07;2.80;;;21.30;68.20;22.10;99996.00;;;;5029442;28;20213;-54
2023/08/30 04:00:57;;;;;;;3.97;3.00;;;21.30;68.30;22.10;99989.00;;;;5029036;28;20211;-53
2023/08/30 04:03:23;;;;;;;7.27;3.00;;;21.30;68.40;22.10;99996.00;;;;5023551;28;20186;-53
2023/08/30 04:05:56;;;;;;;4.63;3.10;;;21.30;68.50;22.10;99988.00;;;;5029217;28;20178;-54
2023/08/30 04:08:22;;;;;;;5.33;3.07;;;21.30;68.60;22.10;99981.00;;;;5012622;28;20641;-54
2023/08/30 04:10:49;;;;;;;3.50;2.90;;;21.30;68.50;22.10;99988.00;;;;5029479;28;20233;-53
2023/08/30 04:13:15;;;;;;;5.07;3.13;;;21.30;68.50;22.10;99991.00;;;;5030221;28;20195;-56
2023/08/30 04:15:41;;;;;;;3.43;2.80;;;21.30;68.50;22.10;99980.00;;;;5030711;28;20198;-54
2023/08/30 04:18:06;;;;;;;6.07;3.40;;;21.30;68.50;22.10;99989.00;;;;5028737;28;20215;-55
2023/08/30 04:20:32;;;;;;;3.67;2.80;;;21.30;68.50;22.10;99991.00;;;;5031810;28;20318;-54
2023/08/30 04:23:01;;;;;;;3.93;3.00;;;21.30;68.50;22.00;99980.00;;;;5015634;28;20249;-54
2023/08/30 04:25:27;;;;;;;3.90;3.23;;;21.20;68.40;22.00;99981.00;;;;5015581;28;20599;-54
2023/08/30 04:27:53;;;;;;;2.97;2.77;;;21.20;68.40;22.00;99984.00;;;;5026102;28;20186;-54
2023/08/30 04:30:19;;;;;;;3.00;2.80;;;21.20;68.40;22.00;99972.00;;;;5006779;28;20203;-54
2023/08/30 04:32:45;;;;;;;3.10;2.80;;;21.20;68.40;22.00;99975.00;;;;5026839;28;20188;-54
2023/08/30 04:35:10;;;;;;;3.37;3.00;;;21.20;68.50;22.00;99974.00;;;;5031966;28;20206;-53
2023/08/30 04:37:38;;;;;;;3.20;2.90;;;21.20;68.50;22.00;99974.00;;;;5032461;28;20179;-53
2023/08/30 04:40:09;;;;;;;3.77;2.80;;;21.20;68.50;22.00;99967.00;;;;5031795;28;20306;-54
2023/08/30 04:42:35;;;;;;;3.30;3.00;;;21.20;68.50;22.00;99970.00;;;;5032489;28;20204;-53
2023/08/30 04:45:02;;;;;;;3.07;2.87;;;21.10;68.40;22.00;99976.00;;;;5032024;28;20182;-53
2023/08/30 04:47:31;;;;;;;2.90;2.70;;;21.20;68.60;21.90;99968.00;;;;5014603;28;20719;-54
2023/08/30 04:49:57;;;;;;;3.00;2.80;;;21.10;68.50;21.90;99968.00;;;;5032057;28;20207;-55
2023/08/30 04:52:23;;;;;;;3.23;2.90;;;21.10;68.50;21.90;99966.00;;;;5031978;28;20187;-54
2023/08/30 04:54:49;;;;;;;3.50;2.87;;;21.10;68.50;21.90;99965.00;;;;5031702;28;20191;-54
2023/08/30 04:57:16;;;;;;;3.07;2.77;;;21.10;68.50;21.90;99973.00;;;;5010737;28;20187;-54
2023/08/30 04:59:45;;;;;;;3.50;2.80;;;21.10;68.50;21.90;99965.00;;;;5027429;28;20226;-55
2023/08/30 05:02:11;;;;;;;3.00;2.80;;;21.10;68.50;21.90;99960.00;;;;5025772;28;20198;-55
2023/08/30 05:04:37;;;;;;;3.53;2.77;;;21.10;68.50;21.90;99958.00;;;;5031674;28;20178;-55
2023/08/30 05:07:03;;;;;;;3.43;2.70;;;21.10;68.50;21.90;99959.00;;;;5031410;28;20673;-54
2023/08/30 05:09:30;;;;;;;2.80;2.60;;;21.10;68.90;21.80;99955.00;;;;5031675;28;20221;-53
2023/08/30 05:11:56;;;;;;;3.03;2.80;;;21.10;68.50;21.80;99956.00;;;;5031608;28;20171;-54
2023/08/30 05:14:21;;;;;;;3.87;2.63;;;21.10;68.50;21.80;99950.00;;;;5031129;28;20213;-54
2023/08/30 05:16:49;;;;;;;2.80;2.60;;;21.00;68.40;21.80;99953.00;;;;5031557;28;20209;-54
2023/08/30 05:19:17;;;;;;;2.70;2.50;;;21.00;68.30;21.80;99955.00;;;;5031253;28;20207;-54
2023/08/30 05:21:43;;;;;;;3.00;2.80;;;21.00;68.40;21.80;99956.00;;;;5031245;28;20187;-54
2023/08/30 05:24:10;;;;;;;2.80;2.60;;;21.00;68.40;21.80;99953.00;;;;5030927;28;20191;-53
2023/08/30 05:26:35;;;;;;;2.73;2.53;;;21.00;68.30;21.80;99958.00;;;;5031306;28;20680;-54
2023/08/30 05:29:02;;;;;;;2.87;2.67;;;21.00;68.40;21.80;99947.00;;;;5030450;28;20183;-54
2023/08/30 05:31:27;;;;;;;3.37;2.57;;;20.90;68.30;21.80;99947.00;;;;5039455;28;20198;-54
2023/08/30 05:33:53;;;;;;;3.13;2.83;;;20.90;68.30;21.80;99957.00;;;;5027121;28;20191;-54
2023/08/30 05:36:19;;;;;;;2.60;2.40;;;20.90;68.30;21.80;99952.00;;;;5025926;28;20183;-54
2023/08/30 05:38:44;;;;;;;3.23;2.73;;;20.90;68.30;21.80;99928.00;;;;5031644;28;20865;-54
2023/08/30 05:41:10;;;;;;;2.80;2.60;;;20.90;68.30;21.80;99931.00;;;;5031431;28;20199;-54
2023/08/30 05:43:36;;;;;;;2.40;2.30;;;20.90;68.30;21.80;99926.00;;;;5026050;28;20194;-59
2023/08/30 05:46:02;;;;;;;2.60;2.40;;;20.90;68.40;21.70;99923.00;;;;5041908;28;20179;-54
2023/08/30 05:48:33;;;;;;;3.63;2.50;;;20.90;68.50;21.80;99931.00;;;;5043439;28;20234;-54
2023/08/30 05:50:58;;;;;;;2.87;2.40;;;20.90;68.60;21.70;99927.00;;;;5025339;28;20603;-54
2023/08/30 05:53:24;;;;;;;2.70;2.50;;;20.90;68.50;21.70;99918.00;;;;5030797;28;20183;-54
2023/08/30 05:55:50;;;;;;;3.33;2.30;;;20.90;68.60;21.70;99922.00;;;;5030007;28;20190;-54
2023/08/30 05:58:17;;;;;;;2.93;2.67;;;20.80;68.40;21.70;99915.00;;;;5019063;28;20230;-54
2023/08/30 06:00:43;;;;;;;2.90;2.70;;;20.80;68.40;21.50;99923.00;;;;5013422;28;20218;-54
2023/08/30 06:03:10;;;;;;;2.63;2.43;;;20.80;68.40;21.70;99923.00;;;;5023015;28;20191;-54
2023/08/30 06:05:36;;;;;;;2.60;2.40;;;20.90;68.60;21.70;99920.00;;;;5023110;28;20176;-55
2023/08/30 06:08:02;;;;;;;3.03;2.43;;;20.80;68.40;21.70;99917.00;;;;5014864;28;20521;-54
2023/08/30 06:10:28;;;;;;;2.83;2.40;;;20.80;68.40;21.70;99914.00;;;;5021992;28;20218;-54
2023/08/30 06:12:54;;;;;;;4.50;2.70;;;20.80;68.40;21.70;99915.00;;;;5030175;28;20179;-54
2023/08/30 06:15:19;;;;;;;2.70;2.50;;;20.80;68.40;21.70;99905.00;;;;5030066;28;20657;-54
2023/08/30 06:17:46;;;;;;;2.90;2.70;;;20.80;68.40;21.60;99906.00;;;;5030431;28;20175;-55
2023/08/30 06:20:12;;;;;;;2.80;2.60;;;20.70;68.30;21.60;99894.00;;;;5028196;28;20211;-53
2023/08/30 06:22:38;;;;;;;2.90;2.60;;;20.70;69.10;21.60;99906.00;;;;5013324;28;20207;-55
2023/08/30 06:25:06;;;;;;;2.70;2.50;;;20.70;68.30;21.60;99899.00;;;;5028988;28;20657;-54
2023/08/30 06:27:32;;;;;;;3.20;2.73;;;20.80;68.50;21.60;99893.00;;;;5030546;28;20241;-54
2023/08/30 06:29:58;;;;;;;2.80;2.60;;;20.70;68.40;21.60;99901.00;;;;5030221;28;20575;-53
2023/08/30 06:32:23;;;;;;;2.70;2.50;;;20.80;68.70;21.60;99898.00;;;;5020065;28;20184;-54
2023/08/30 06:34:49;;;;;;;2.70;2.50;;;20.70;68.80;21.60;99901.00;;;;5013015;28;20179;-55
2023/08/30 06:37:15;;;;;;;2.60;2.40;;;20.70;69.20;21.60;99902.00;;;;5029992;28;20660;-55
2023/08/30 06:39:41;;;;;;;2.63;2.43;;;20.70;69.40;21.60;99893.00;;;;5030003;28;20591;-54
2023/08/30 06:42:07;;;;;;;3.07;2.60;;;20.80;70.00;21.60;99892.00;;;;5027537;28;20179;-54
2023/08/30 06:44:33;;;;;;;3.33;2.93;;;20.70;70.10;21.60;99894.00;;;;5011820;28;20639;-55
2023/08/30 06:46:58;;;;;;;5.10;2.60;;;20.70;70.10;21.60;99900.00;;;;5015375;28;20245;-55
2023/08/30 06:49:24;;;;;;;4.13;2.63;;;20.80;70.30;21.60;99891.00;;;;5028614;28;20274;-54
2023/08/30 06:51:50;;;;;;;6.67;2.90;;;20.70;70.10;21.50;99893.00;;;;5019780;28;20262;-54
2023/08/30 06:54:16;;;;;;;4.90;2.70;;;20.70;70.10;21.60;99884.00;;;;5021165;28;20740;-55
2023/08/30 06:56:57;;;;;;;4.57;2.83;;;20.70;70.80;21.50;99883.00;;;;5010243;28;20190;-54
2023/08/30 06:59:23;;;;;;;3.93;2.50;;;20.70;70.40;21.50;99881.00;;;;5028198;28;20214;-55
2023/08/30 07:01:49;;;;;;;7.40;3.37;;;20.70;70.70;21.50;99883.00;;;;5013501;28;20191;-52
2023/08/30 07:04:15;;;;;;;4.13;2.83;;;20.70;71.60;21.50;99884.00;;;;5021189;28;20555;-52
2023/08/30 07:06:41;;;;;;;6.73;2.80;;;20.70;70.80;21.50;99875.00;;;;5029318;28;20873;-52
2023/08/30 07:09:07;;;;;;;3.27;2.60;;;20.80;70.90;21.50;99875.00;;;;5028701;28;20660;-54
2023/08/30 07:11:34;;;;;;;3.80;2.80;;;20.70;70.80;21.50;99876.00;;;;5029356;28;20203;-53
2023/08/30 07:13:59;;;;;;;3.10;2.80;;;20.70;70.50;21.50;99881.00;;;;5029507;28;20178;-53
2023/08/30 07:16:25;;;;;;;3.93;2.63;;;20.70;70.40;21.50;99878.00;;;;5028848;28;20193;-54
2023/08/30 07:18:51;;;;;;;3.77;2.80;;;20.80;70.80;21.50;99878.00;;;;5028313;28;20238;-53
2023/08/30 07:21:16;;;;;;;4.37;2.60;;;20.70;70.60;21.50;99883.00;;;;5028893;28;20277;-53
2023/08/30 07:23:42;;;;;;;3.37;2.93;;;20.70;70.60;21.50;99875.00;;;;5022812;28;20262;-54
2023/08/30 07:26:08;;;;;;;2.90;2.60;;;20.70;70.70;21.50;99873.00;;;;5017842;28;20194;-60
2023/08/30 07:28:34;;;;;;;5.50;3.10;;;20.70;70.70;21.50;99871.00;;;;5022778;28;20214;-53
2023/08/30 07:31:05;;;;;;;4.87;2.97;;;20.70;71.90;21.50;99870.00;;;;5031172;28;20274;-55
2023/08/30 07:33:31;;;;;;;8.27;3.30;;;20.70;71.90;21.50;99880.00;;;;5044292;28;20179;-52
2023/08/30 07:35:57;;;;;;;10.23;3.50;;;20.80;72.40;21.50;99875.00;;;;5019615;28;20187;-54
2023/08/30 07:38:23;;;;;;;10.07;4.43;;;20.70;72.30;21.50;99866.00;;;;5031161;28;20263;-53
2023/08/30 07:40:48;;;;;;;12.50;4.50;;;20.70;73.80;21.50;99874.00;;;;5010691;28;20199;-51
2023/08/30 07:43:14;;;;;;;8.13;4.90;;;20.80;73.90;21.50;99862.00;;;;5029264;28;20226;-52
2023/08/30 07:45:40;;;;;;;8.13;4.50;;;20.70;74.40;21.50;99868.00;;;;5031779;28;20179;-52
2023/08/30 07:48:06;;;;;;;8.27;4.40;;;20.80;74.60;21.50;99863.00;;;;5039966;28;20249;-53
2023/08/30 07:50:31;;;;;;;7.73;4.40;;;20.80;74.50;21.50;99872.00;;;;5029042;28;20709;-53
2023/08/30 07:52:57;;;;;;;4.57;3.57;;;20.80;74.00;21.50;99853.00;;;;5029116;28;20210;-53
2023/08/30 07:55:23;;;;;;;5.80;3.70;;;20.70;73.50;21.50;99866.00;;;;5027695;28;20764;-53
2023/08/30 07:57:48;;;;;;;4.20;3.40;;;20.70;73.50;21.50;99870.00;;;;5028627;28;20262;-53
2023/08/30 08:00:14;;;;;;;4.50;3.57;;;20.70;73.30;21.50;99870.00;;;;5010664;28;20203;-53
2023/08/30 08:02:40;;;;;;;9.13;3.57;;;20.70;73.70;21.50;99861.00;;;;5023037;28;20190;-53
2023/08/30 08:05:06;;;;;;;4.23;3.47;;;20.70;73.60;21.50;99865.00;;;;5028691;28;20183;-52
2023/08/30 08:07:32;;;;;;;8.60;3.63;;;20.70;73.90;21.50;99870.00;;;;5028796;28;20241;-54
2023/08/30 08:09:58;;;;;;;9.17;3.47;;;20.70;73.50;21.50;99876.00;;;;5025270;28;20202;-54
2023/08/30 08:12:23;;;;;;;7.77;3.37;;;20.80;73.90;21.50;99863.00;;;;5028196;28;20187;-53
2023/08/30 08:14:49;;;;;;;4.60;3.20;;;20.70;73.50;21.50;99856.00;;;;5029063;28;20262;-53
2023/08/30 08:17:15;;;;;;;4.30;3.23;;;20.80;73.50;21.50;99863.00;;;;5014505;28;20207;-54
2023/08/30 08:19:42;;;;;;;6.00;3.07;;;20.70;73.20;21.50;99859.00;;;;5011404;28;20619;-53
2023/08/30 08:22:08;;;;;;;5.13;3.30;;;20.70;73.10;21.50;99858.00;;;;5020676;28;20262;-53
2023/08/30 08:24:34;;;;;;;5.73;3.37;;;20.70;72.90;21.50;99857.00;;;;5028790;28;20262;-53
2023/08/30 08:27:01;;;;;;;5.50;3.20;;;20.80;73.10;21.50;99856.00;;;;5026657;28;20241;-52
2023/08/30 08:29:27;;;;;;;4.70;2.97;;;20.70;73.10;21.50;99850.00;;;;5028788;28;20218;-53
2023/08/30 08:31:53;;;;;;;4.80;2.83;;;20.70;73.00;21.50;99854.00;;;;5029055;28;20182;-53
2023/08/30 08:34:19;;;;;;;6.53;3.20;;;20.80;73.10;21.50;99850.00;;;;5028874;28;20179;-53
2023/08/30 08:36:45;;;;;;;3.93;2.90;;;20.70;72.90;21.50;99845.00;;;;5028750;28;20221;-53
2023/08/30 08:39:10;;;;;;;6.53;2.90;;;20.70;73.00;21.50;99845.00;;;;5028134;28;20206;-53
2023/08/30 08:41:41;;;;;;;3.37;2.83;;;20.70;72.90;21.50;99856.00;;;;5028848;28;20198;-54
2023/08/30 08:44:08;;;;;;;3.00;2.70;;;20.70;72.90;21.50;99836.00;;;;5026322;28;20175;-54
2023/08/30 08:46:38;;;;;;;3.10;2.80;;;20.70;72.90;21.50;99836.00;;;;5029084;28;20183;-54
2023/08/30 08:49:11;;;;;;;4.27;2.70;;;20.70;73.00;21.50;99823.00;;;;5028760;28;20179;-52
2023/08/30 08:51:37;;;;;;;3.67;2.90;;;20.70;72.80;21.50;99836.00;;;;5011673;28;20569;-53
2023/08/30 08:54:04;;;;;;;3.23;2.83;;;20.80;72.90;21.50;99839.00;;;;5028844;28;20270;-52
2023/08/30 08:56:33;;;;;;;3.17;2.80;;;20.70;72.80;21.50;99840.00;;;;5028369;28;20252;-53
2023/08/30 08:58:59;;;;;;;5.97;2.90;;;20.70;72.80;21.50;99829.00;;;;5028399;28;20231;-52
2023/08/30 09:01:25;;;;;;;4.60;2.80;;;20.70;72.80;21.50;99845.00;;;;5025802;28;20834;-52
2023/08/30 09:03:51;;;;;;;2.80;2.60;;;20.70;72.80;21.60;99841.00;;;;5007468;28;20211;-54
2023/08/30 09:06:17;;;;;;;2.77;2.57;;;20.70;72.80;21.60;99822.00;;;;5030402;28;20218;-53
2023/08/30 09:08:43;;;;;;;4.10;2.73;;;20.70;72.80;21.60;99833.00;;;;5014338;28;20179;-52
2023/08/30 09:11:09;;;;;;;2.93;2.70;;;20.70;72.90;21.60;99830.00;;;;5031529;28;20214;-52
2023/08/30 09:13:34;;;;;;;4.10;2.87;;;20.70;72.90;21.50;99829.00;;;;5025759;28;20187;-53
2023/08/30 09:16:00;;;;;;;3.53;2.83;;;20.80;73.10;21.60;99826.00;;;;5030025;28;20656;-52
2023/08/30 09:18:27;;;;;;;3.80;2.77;;;20.70;72.90;21.60;99818.00;;;;5014078;28;20199;-53
2023/08/30 09:21:09;;;;;;;3.37;2.83;;;20.70;72.90;21.60;99820.00;;;;5032370;28;20206;-53
2023/08/30 09:23:35;;;;;;;3.10;2.90;;;20.70;72.80;21.50;99811.00;;;;5029901;28;20563;-53
2023/08/30 09:26:02;;;;;;;4.37;2.87;;;20.70;72.90;21.50;99809.00;;;;5022421;28;20187;-53
2023/08/30 09:28:28;;;;;;;3.37;2.60;;;20.70;72.90;21.50;99808.00;;;;5031409;28;20194;-53
2023/08/30 09:30:54;;;;;;;2.80;2.60;;;20.70;72.90;21.60;99808.00;;;;5031775;28;20203;-52
2023/08/30 09:33:37;;;;;;;3.00;2.57;;;20.70;73.00;21.60;99817.00;;;;5047351;28;20187;-52
2023/08/30 09:36:10;;;;;;;2.90;2.70;;;20.70;73.10;21.60;99819.00;;;;5039023;28;20257;-52
2023/08/30 09:38:37;;;;;;;3.33;2.60;;;20.70;73.10;21.60;99812.00;;;;5031884;28;20206;-53
2023/08/30 09:41:05;;;;;;;3.43;2.83;;;20.70;73.00;21.60;99810.00;;;;5031890;28;20203;-52
2023/08/30 09:43:33;;;;;;;2.63;2.43;;;20.70;73.00;21.60;99809.00;;;;5032646;28;20206;-53
2023/08/30 09:46:02;;;;;;;3.13;2.80;;;20.70;73.00;21.60;99804.00;;;;5024596;28;20198;-56
2023/08/30 09:48:28;;;;;;;2.83;2.63;;;20.70;73.20;21.60;99799.00;;;;5034858;28;20253;-52
2023/08/30 09:50:54;;;;;;;2.87;2.67;;;20.70;73.10;21.60;99796.00;;;;5034882;28;20198;-53
2023/08/30 09:53:21;;;;;;;2.90;2.60;;;20.80;73.30;21.60;99805.00;;;;5031438;28;20748;-52
2023/08/30 09:55:48;;;;;;;3.00;2.70;;;20.70;73.20;21.60;99797.00;;;;5031610;28;20565;-52
2023/08/30 09:58:15;;;;;;;2.90;2.60;;;20.70;73.10;21.60;99800.00;;;;5031249;28;20211;-53
2023/08/30 10:00:41;;;;;;;2.70;2.50;;;20.70;73.10;21.60;99802.00;;;;5013612;28;20222;-53
2023/08/30 10:03:07;;;;;;;2.80;2.50;;;20.70;73.30;21.60;99795.00;;;;5025510;28;20210;-52
2023/08/30 10:05:33;;;;;;;2.83;2.63;;;20.70;73.20;21.60;99793.00;;;;5031544;28;20187;-52
2023/08/30 10:07:58;;;;;;;2.80;2.50;;;20.70;73.30;21.60;99800.00;;;;4997119;28;20531;-52
2023/08/30 10:10:24;;;;;;;2.60;2.40;;;20.70;73.20;21.60;99801.00;;;;5013328;28;20198;-52
2023/08/30 10:12:50;;;;;;;2.70;2.50;;;20.70;73.20;21.60;99790.00;;;;5013237;28;20190;-53
2023/08/30 10:15:16;;;;;;;2.90;2.60;;;20.70;73.30;21.60;99799.00;;;;5013336;28;20218;-52
2023/08/30 10:17:44;;;;;;;2.80;2.50;;;20.70;73.30;21.60;99803.00;;;;5030312;28;20183;-53
2023/08/30 10:20:12;;;;;;;3.17;2.87;;;20.70;74.00;21.60;99796.00;;;;5013360;28;20246;-53
2023/08/30 10:22:38;;;;;;;2.80;2.57;;;20.70;73.50;21.70;99795.00;;;;5028915;28;20658;-52
2023/08/30 10:25:19;;;;;;;3.10;2.50;;;20.70;73.30;21.70;99794.00;;;;4989803;28;20183;-53
2023/08/30 10:27:46;;;;;;;2.60;2.40;;;20.70;73.30;21.70;99791.00;;;;5013907;28;20695;-53
2023/08/30 10:30:12;;;;;;;4.60;2.47;;;20.70;73.40;21.70;99777.00;;;;5013191;28;20224;-53
2023/08/30 10:32:42;;;;;;;2.60;2.30;;;20.80;73.60;21.70;99782.00;;;;5030576;28;20631;-53
2023/08/30 10:35:14;;;;;;;3.73;2.60;;;20.70;73.40;21.70;99788.00;;;;5030725;28;20630;-53
2023/08/30 10:37:40;;;;;;;2.63;2.43;;;20.70;73.60;21.70;99786.00;;;;5030484;28;20179;-53
2023/08/30 10:40:07;;;;;;;2.60;2.40;;;20.80;73.60;21.70;99788.00;;;;5010067;28;20272;-53
2023/08/30 10:42:32;;;;;;;2.83;2.40;;;20.80;73.70;21.70;99794.00;;;;5030459;28;20593;-53
2023/08/30 10:45:05;;;;;;;2.80;2.60;;;20.70;73.50;21.70;99789.00;;;;5012491;28;20187;-53
2023/08/30 10:47:35;;;;;;;2.50;2.30;;;20.80;73.60;21.70;99800.00;;;;5013402;28;20179;-52
2023/08/30 10:50:06;;;;;;;2.77;2.57;;;20.70;73.50;21.70;99788.00;;;;5027852;28;20207;-53